Nearby METAR Reports

 

EBAW - Antwerpen, Belgium
Distance from station: NW 22km
Updated: 2019-04-25 05:50
Clear
Clear
 Wind from SE
Wind: SE 13 km/h
Temperature: 10°C
Wind Chill: 8°C
Dew Point: 8°C
Humidity: 88%
Barometer: 1002 hPa
Summary: Clear
Visibility: greater than 10 km
2019/04/25 03:50 EBAW 250350Z AUTO 14007KT CAVOK 10/08 Q1002
EBBR - Brussel, Belgium
Distance from station: SW 24km
Updated: 2019-04-25 05:50
Clear
Clear
 Wind from SSE
Wind: SSE 24 km/h
Temperature: 11°C
Dew Point: 6°C
Humidity: 72%
Barometer: 1002 hPa
Summary: Clear
Visibility: greater than 10 km
2019/04/25 03:50 EBBR 250350Z 16013KT CAVOK 11/06 Q1002 NOSIG
 
EBDT - Schaffen, Belgium
Distance from station: ESE 26km
Updated: 2019-04-24 17:55
NOT Current
Mostly cloudy
Mostly cloudy
 Wind from S
Wind: S 20 km/h
Temperature: 19°C
Dew Point: 9°C
Humidity: 52%
Barometer: 1000 hPa
Clouds: Mostly cloudy
Visibility: 10 km
Cloud details: Mostly cloudy 2438 m
Mostly cloudy 3353 m
2019/04/24 15:55 EBDT 241555Z AUTO 19011KT 9999 BKN080/// BKN110/// 19/09 Q1000 BLU
EBBE - Beauvechain, Belgium
Distance from station: S 36km
Updated: 2019-04-25 05:55
Mostly cloudy
Mostly cloudy
 Wind from SSE
Wind: SSE 20 km/h
Temperature: 11°C
Dew Point: 5°C
Humidity: 67%
Barometer: 1003 hPa
Clouds: Mostly cloudy
Visibility: 10 km
Cloud details: Mostly cloudy 4572 m
Mostly cloudy 7620 m
2019/04/25 03:55 EBBE 250355Z AUTO 16011KT 9999 BKN150/// BKN250/// 11/05 Q1003 BLU
 
EHWO - Woensdrecht Rnla, Netherlands
Distance from station: NNW 50km
Updated: 2019-04-25 05:55
Overcast
Overcast
 Wind from ESE
Wind: ESE 7 km/h
Temperature: 9°C
Wind Chill: 8°C
Dew Point: 8°C
Humidity: 94%
Barometer: 1002 hPa
Clouds: Overcast
Visibility: 10 km
Cloud details: Overcast 3048 m
2019/04/25 03:55 EHWO 250355Z AUTO 11004KT 9999 OVC100 09/08 Q1002 BLU
EBBL - Kleine-Brogel, Belgium
Distance from station: ENE 54km
Updated: 2019-04-25 05:55
Mostly cloudy
Mostly cloudy
 Wind from varies
Wind: varies 2 km/h
Temperature: 8°C
Dew Point: 7°C
Humidity: 93%
Barometer: 1004 hPa
Clouds: Mostly cloudy
Visibility: 10 km
Cloud details: Mostly cloudy 3048 m
Mostly cloudy 7010 m
2019/04/25 03:55 EBBL 250355Z AUTO VRB01KT 9999 BKN100/// BKN230/// 08/07 Q1004 BLU
 
EHGR - Gilze-Rijen Rnla, Netherlands
Distance from station: NNE 57km
Updated: 2019-04-25 05:55
Overcast
Overcast
 Wind from SE
Wind: SE 13 km/h
Temperature: 9°C
Wind Chill: 7°C
Dew Point: 7°C
Humidity: 87%
Barometer: 1003 hPa
Clouds: Overcast
Visibility: 10 km
Cloud details: Overcast 3048 m
2019/04/25 03:55 EHGR 250355Z AUTO 13007KT 9999 OVC100 09/07 Q1003 BLU
EHEH - Eindhoven Rnlafb, Netherlands
Distance from station: NE 63km
Updated: 2019-04-25 06:16
Overcast
Overcast
 Wind from SE
Wind: SE 13 km/h
Temperature: 9°C
Wind Chill: 7°C
Dew Point: 7°C
Humidity: 87%
Barometer: 1004 hPa
Clouds: Overcast
Visibility: 10 km
Cloud details: Overcast 3048 m
2019/04/25 04:16 EHEH 250416Z AUTO 13007KT 100V170 9999 OVC100 09/07 Q1004 BLU 15008KT CAVOK
 
EBCI - Charleroi, Belgium
Distance from station: SSW 70km
Updated: 2019-04-25 05:50
Clear
Clear
 Wind from S
Wind: S 20 km/h
Temperature: 11°C
Dew Point: 5°C
Humidity: 67%
Barometer: 1003 hPa
Summary: Clear
Visibility: greater than 10 km
2019/04/25 03:50 EBCI 250350Z 17011KT CAVOK 11/05 Q1003 NOSIG
EBLG - Bierset, Belgium
Distance from station: SE 72km
Updated: 2019-04-25 05:50
Clear
Clear
 Wind from SSE
Wind: SSE 15 km/h
Temperature: 10°C
Wind Chill: 8°C
Dew Point: 5°C
Humidity: 71%
Barometer: 1004 hPa
Summary: Clear
Visibility: greater than 10 km
2019/04/25 03:50 EBLG 250350Z 16008KT CAVOK 10/05 Q1004 NOSIG